Terminal Aerodrome Forecast
Issued by NWS Cleveland, OH

Home | Current Version | Previous Version | Graphics & Text | Print | Product List | Glossary On
Versions: 1 2 3 4 5 6 7 8 9 10 11 12 13 14 15 16 17 18 19 20 21 22 23
000
FTUS41 KCLE 011833 AAA
TAFMFD
TAF AMD
KMFD 011833Z 0119/0218 31006KT P6SM VCTS SCT015CB OVC035
      TEMPO 0120/0122 3SM BR BKN015
     FM012200 36006KT 3SM BR BKN006 OVC012
     FM020400 08003KT 2SM -SHRA BR VCTS OVC005CB
     FM021100 29005KT 1SM BR OVC003=

USA.gov is the U.S. government's official web portal to all federal, state and local government web resources and services.